Time;durP1;ratioP1;P1;durP2;ratioP2;P2;SDS_P1;SDS_P2;PMS_P1;PMS_P2;Temp;Humidity;BMP_temperature;BMP_pressure;BME280_temperature;BME280_humidity;BME280_pressure;Samples;Min_cycle;Max_cycle;Signal;HPM_P1;HPM_P2
2023/04/09 00:00:04;;;;;;;7.83;4.10;;;;;;;6.77;86.64;99302.59;5018079;28;20230;-51
2023/04/09 00:02:38;;;;;;;4.93;3.50;;;;;;;6.76;87.12;99295.75;5019761;28;20239;-51
2023/04/09 00:05:08;;;;;;;6.60;4.40;;;;;;;6.74;87.52;99297.63;5017542;28;20233;-51
2023/04/09 00:07:34;;;;;;;6.57;4.37;;;;;;;6.69;87.50;99290.19;5019165;28;20237;-53
2023/04/09 00:10:01;;;;;;;7.37;4.23;;;;;;;6.65;87.12;99289.56;5017488;28;20227;-53
2023/04/09 00:12:29;;;;;;;6.43;4.30;;;;;;;6.64;87.72;99292.28;5018837;28;20607;-52
2023/04/09 00:14:57;;;;;;;5.50;3.83;;;;;;;6.62;86.99;99287.19;5018314;28;21039;-53
2023/04/09 00:17:24;;;;;;;6.73;4.03;;;;;;;6.65;87.17;99286.16;5013350;28;20629;-53
2023/04/09 00:19:50;;;;;;;6.40;3.60;;;;;;;6.65;87.42;99283.56;5020199;28;20712;-53
2023/04/09 00:22:17;;;;;;;8.13;4.07;;;;;;;6.65;87.17;99283.56;5016728;28;20247;-51
2023/04/09 00:24:43;;;;;;;6.57;4.47;;;;;;;6.62;86.66;99286.38;5019608;28;20224;-53
2023/04/09 00:27:10;;;;;;;4.57;3.83;;;;;;;6.61;86.94;99287.31;5016375;28;20228;-51
2023/04/09 00:29:37;;;;;;;5.57;4.00;;;;;;;6.61;86.77;99287.31;5020212;28;20323;-53
2023/04/09 00:32:05;;;;;;;5.43;4.20;;;;;;;6.60;86.92;99289.06;4998979;28;20236;-51
2023/04/09 00:34:32;;;;;;;7.03;4.20;;;;;;;6.58;87.27;99288.34;5016812;28;20232;-53
2023/04/09 00:36:58;;;;;;;8.27;5.07;;;;;;;6.60;88.00;99283.88;5019222;28;20780;-51
2023/04/09 00:39:25;;;;;;;9.47;5.10;;;;;;;6.60;87.53;99283.88;5016809;28;20235;-53
2023/04/09 00:41:57;;;;;;;8.27;5.40;;;;;;;6.49;88.19;99284.66;5018535;28;20604;-52
2023/04/09 00:44:23;;;;;;;7.97;5.07;;;;;;;6.44;87.49;99278.97;4998687;28;20318;-51
2023/04/09 00:46:50;;;;;;;6.80;4.40;;;;;;;6.41;87.36;99286.09;5018677;28;20231;-52
2023/04/09 00:49:18;;;;;;;5.57;4.10;;;;;;;6.30;86.43;99284.28;4997006;28;20561;-51
2023/04/09 00:51:46;;;;;;;5.00;3.80;;;;;;;6.26;86.94;99288.88;5024928;28;20250;-53
2023/04/09 00:54:13;;;;;;;5.20;3.83;;;;;;;6.15;87.20;99281.00;5016891;28;20224;-54
2023/04/09 00:56:40;;;;;;;5.50;3.83;;;;;;;6.12;89.93;99287.22;5019318;28;20278;-54
2023/04/09 00:59:07;;;;;;;5.50;4.10;;;;;;;6.05;89.28;99281.63;4999848;28;20236;-51
2023/04/09 01:01:34;;;;;;;5.70;4.27;;;;;;;5.96;89.32;99291.75;5002155;28;20236;-52
2023/04/09 01:04:01;;;;;;;5.77;4.27;;;;;;;5.89;88.92;99286.97;5000221;28;20738;-54
2023/04/09 01:06:38;;;;;;;6.83;5.03;;;;;;;5.84;88.10;99294.25;5017798;28;20234;-53
2023/04/09 01:09:09;;;;;;;6.63;4.67;;;;;;;5.76;87.95;99287.00;5021881;28;20235;-51
2023/04/09 01:11:43;;;;;;;6.57;5.47;;;;;;;5.68;88.56;99283.28;5002524;28;20234;-51
2023/04/09 01:14:19;;;;;;;6.83;4.90;;;;;;;5.62;88.19;99281.91;4996334;28;20760;-52
2023/04/09 01:16:52;;;;;;;8.07;5.20;;;;;;;5.55;89.19;99283.25;4983400;28;20220;-53
2023/04/09 01:19:34;;;;;;;7.03;4.73;;;;;;;5.44;89.07;99291.75;4986750;28;20251;-53
2023/04/09 01:22:07;;;;;;;6.27;4.40;;;;;;;5.37;90.03;99280.13;4983693;28;20811;-53
2023/04/09 01:24:45;;;;;;;5.63;4.33;;;;;;;5.29;90.17;99281.47;5000732;28;20235;-51
2023/04/09 01:27:16;;;;;;;7.50;4.73;;;;;;;5.25;92.86;99287.78;5014016;28;20266;-52
2023/04/09 01:29:54;;;;;;;9.23;5.53;;;;;;;5.15;92.23;99282.38;5006439;28;20258;-54
2023/04/09 01:32:22;;;;;;;6.37;4.70;;;;;;;5.07;92.11;99281.22;4997496;28;20777;-52
2023/04/09 01:34:50;;;;;;;7.77;5.40;;;;;;;4.98;91.60;99277.47;5018406;28;20229;-51
2023/04/09 01:37:18;;;;;;;6.77;4.87;;;;;;;4.93;92.54;99276.94;4999300;28;20239;-53
2023/04/09 01:39:46;;;;;;;7.83;4.90;;;;;;;4.90;92.64;99274.53;5002183;28;20232;-52
2023/04/09 01:42:15;;;;;;;6.30;4.90;;;;;;;4.83;92.69;99274.09;5020860;28;20758;-54
2023/04/09 01:44:44;;;;;;;7.40;4.90;;;;;;;4.76;94.46;99283.19;5018358;28;20227;-53
2023/04/09 01:47:13;;;;;;;7.57;5.00;;;;;;;4.77;94.57;99277.91;4993696;28;20649;-52
2023/04/09 01:49:41;;;;;;;8.77;5.07;;;;;;;4.64;93.79;99277.03;5016057;28;20247;-52
2023/04/09 01:52:09;;;;;;;7.73;4.57;;;;;;;4.67;94.92;99279.41;5002994;28;20232;-52
2023/04/09 01:54:36;;;;;;;7.60;5.10;;;;;;;4.58;95.01;99280.84;5005488;28;20286;-53
2023/04/09 01:57:03;;;;;;;10.47;5.77;;;;;;;4.52;94.35;99288.97;4988833;28;20658;-53
2023/04/09 01:59:30;;;;;;;8.70;6.73;;;;;;;4.41;94.16;99287.03;4991654;28;20669;-54
2023/04/09 02:02:01;;;;;;;8.93;5.83;;;;;;;4.38;94.50;99289.81;4985178;28;20325;-53
2023/04/09 02:04:33;;;;;;;9.30;5.47;;;;;;;4.39;94.71;99288.88;4997483;28;20264;-54
2023/04/09 02:07:06;;;;;;;8.40;5.83;;;;;;;4.31;94.19;99289.38;4998266;28;21051;-54
2023/04/09 02:09:37;;;;;;;7.57;5.43;;;;;;;4.24;94.58;99286.31;5016976;28;20240;-53
2023/04/09 02:12:06;;;;;;;9.37;4.97;;;;;;;4.21;96.18;99283.97;4998634;28;20223;-54
2023/04/09 02:14:34;;;;;;;8.67;5.30;;;;;;;4.12;95.70;99289.69;5016055;28;20269;-52
2023/04/09 02:17:01;;;;;;;8.67;6.40;;;;;;;4.11;96.08;99288.03;5001426;28;20235;-53
2023/04/09 02:19:39;;;;;;;8.63;6.13;;;;;;;4.09;96.21;99280.34;4996651;28;20285;-52
2023/04/09 02:22:06;;;;;;;9.07;6.20;;;;;;;4.06;96.77;99280.53;4999112;28;20708;-54
2023/04/09 02:24:33;;;;;;;9.33;6.27;;;;;;;3.99;96.34;99282.66;5012085;28;20885;-54
2023/04/09 02:27:00;;;;;;;10.77;6.23;;;;;;;3.94;96.95;99281.28;4985064;28;20220;-53
2023/04/09 02:29:27;;;;;;;9.63;6.13;;;;;;;3.88;97.22;99284.22;4994177;28;20936;-52
2023/04/09 02:31:54;;;;;;;9.70;5.97;;;;;;;3.84;96.48;99275.84;5002801;28;20227;-51
2023/04/09 02:34:47;;;;;;;8.30;5.37;;;;;;;3.77;96.63;99282.28;4973639;28;20243;-51
2023/04/09 02:37:14;;;;;;;9.37;5.47;;;;;;;3.77;97.11;99280.53;5002834;28;20262;-53
2023/04/09 02:39:40;;;;;;;8.17;5.20;;;;;;;3.63;96.85;99273.59;5018085;28;20840;-52
2023/04/09 02:42:07;;;;;;;9.83;5.53;;;;;;;3.58;98.01;99280.78;4999299;28;20248;-53
2023/04/09 02:44:39;;;;;;;8.20;5.27;;;;;;;3.55;97.49;99280.97;4974892;28;20223;-54
2023/04/09 02:47:07;;;;;;;9.50;5.63;;;;;;;3.53;98.35;99273.31;5008707;28;20243;-54
2023/04/09 02:49:42;;;;;;;9.13;5.83;;;;;;;3.46;98.73;99276.34;5000429;28;20243;-53
2023/04/09 02:52:23;;;;;;;12.57;6.33;;;;;;;3.37;99.17;99288.84;4949049;28;20249;-54
2023/04/09 02:54:50;;;;;;;9.87;7.00;;;;;;;3.37;99.67;99273.38;4972552;28;20227;-55
2023/04/09 02:57:17;;;;;;;12.80;7.47;;;;;;;3.37;100.00;99275.94;4975727;28;20296;-50
2023/04/09 02:59:44;;;;;;;12.17;7.33;;;;;;;3.39;100.00;99274.13;4991365;28;20239;-50
2023/04/09 03:02:11;;;;;;;9.33;6.20;;;;;;;3.36;99.99;99274.28;5013037;28;20248;-50
2023/04/09 03:04:38;;;;;;;11.67;6.87;;;;;;;3.32;99.76;99267.63;5017854;28;20681;-55
2023/04/09 03:07:05;;;;;;;12.97;7.03;;;;;;;3.30;100.00;99266.09;4996960;28;20242;-52
2023/04/09 03:09:33;;;;;;;9.07;5.97;;;;;;;3.35;100.00;99261.50;4997017;28;20745;-53
2023/04/09 03:12:00;;;;;;;10.73;6.73;;;;;;;3.30;100.00;99258.34;5021930;28;20242;-52
2023/04/09 03:14:27;;;;;;;10.30;6.13;;;;;;;3.29;100.00;99267.00;5000959;28;20231;-52
2023/04/09 03:16:54;;;;;;;8.10;5.50;;;;;;;3.30;100.00;99256.56;5019438;28;20231;-52
2023/04/09 03:19:20;;;;;;;9.87;5.77;;;;;;;3.23;100.00;99263.00;5014862;28;20236;-52
2023/04/09 03:21:49;;;;;;;8.47;5.50;;;;;;;3.14;100.00;99256.63;5006321;28;20710;-52
2023/04/09 03:24:18;;;;;;;9.20;5.77;;;;;;;3.09;100.00;99262.06;5000028;28;20772;-52
2023/04/09 03:26:46;;;;;;;9.03;5.73;;;;;;;3.07;100.00;99261.34;5000712;28;20237;-52
2023/04/09 03:29:15;;;;;;;9.27;5.73;;;;;;;3.00;100.00;99261.75;5003205;28;20313;-52
2023/04/09 03:31:41;;;;;;;10.37;6.30;;;;;;;2.95;100.00;99260.25;5215772;22;20239;-59
2023/04/09 03:34:08;;;;;;;9.47;5.33;;;;;;;2.98;100.00;99263.59;5021417;28;20325;-58
2023/04/09 03:36:35;;;;;;;8.07;5.30;;;;;;;2.94;100.00;99257.78;4998827;28;20239;-58
2023/04/09 03:39:10;;;;;;;12.93;6.27;;;;;;;2.84;100.00;99267.75;5020831;28;20234;-58
2023/04/09 03:41:41;;;;;;;12.17;6.13;;;;;;;2.75;100.00;99261.38;5009505;28;20631;-58
2023/04/09 03:44:13;;;;;;;9.03;5.80;;;;;;;2.74;100.00;99266.63;5001662;28;20229;-58
2023/04/09 03:46:57;;;;;;;9.03;5.97;;;;;;;2.65;100.00;99265.38;4999950;28;20390;-57
2023/04/09 03:49:25;;;;;;;9.70;5.93;;;;;;;2.63;100.00;99265.47;5002939;28;20607;-58
2023/04/09 03:51:55;;;;;;;11.37;6.20;;;;;;;2.66;100.00;99264.47;5006817;28;20952;-57
2023/04/09 03:54:23;;;;;;;9.03;6.10;;;;;;;2.68;100.00;99267.78;4997181;28;20246;-59
2023/04/09 03:56:51;;;;;;;13.07;7.50;;;;;;;2.65;100.00;99267.97;5006644;28;20315;-58
2023/04/09 03:59:24;;;;;;;11.87;6.97;;;;;;;2.57;100.00;99262.41;5004803;28;20759;-58
2023/04/09 04:01:51;;;;;;;12.60;7.80;;;;;;;2.58;100.00;99261.47;4997111;28;20229;-59
2023/04/09 04:04:17;;;;;;;12.83;8.10;;;;;;;2.62;100.00;99260.41;5017199;28;20628;-60
2023/04/09 04:06:49;;;;;;;13.60;9.07;;;;;;;2.60;100.00;99265.66;5005955;28;20313;-60
2023/04/09 04:09:24;;;;;;;11.30;7.40;;;;;;;2.67;100.00;99263.56;5005760;28;20333;-58
2023/04/09 04:12:03;;;;;;;13.03;8.13;;;;;;;2.66;100.00;99259.31;5004005;28;20314;-59
2023/04/09 04:14:44;;;;;;;9.83;5.93;;;;;;;2.59;100.00;99265.72;5006669;28;20235;-59
2023/04/09 04:17:21;;;;;;;12.77;7.10;;;;;;;2.61;100.00;99264.75;5003706;28;20244;-60
2023/04/09 04:19:49;;;;;;;10.97;6.47;;;;;;;2.59;100.00;99271.72;5005571;28;20726;-59
2023/04/09 04:22:16;;;;;;;10.30;6.40;;;;;;;2.55;100.00;99264.22;5016310;28;20227;-57
2023/04/09 04:24:45;;;;;;;9.77;6.40;;;;;;;2.63;100.00;99269.78;5003145;28;20791;-55
2023/04/09 04:27:17;;;;;;;11.40;7.27;;;;;;;2.64;100.00;99264.56;4991630;28;20232;-56
2023/04/09 04:29:46;;;;;;;9.53;6.40;;;;;;;2.65;100.00;99266.19;5010270;28;20232;-58
2023/04/09 04:32:27;;;;;;;12.27;7.00;;;;;;;2.60;100.00;99267.38;5000353;28;20720;-57
2023/04/09 04:34:55;;;;;;;7.90;5.60;;;;;;;2.55;100.00;99274.53;5003356;28;20247;-57
2023/04/09 04:37:25;;;;;;;8.37;5.50;;;;;;;2.58;100.00;99269.22;5016068;28;20221;-58
2023/04/09 04:39:56;;;;;;;10.63;6.93;;;;;;;2.55;100.00;99270.22;5004842;28;20224;-56
2023/04/09 04:42:23;;;;;;;10.60;7.27;;;;;;;2.48;100.00;99269.72;5001102;28;20576;-56
2023/04/09 04:44:51;;;;;;;9.50;6.40;;;;;;;2.51;100.00;99266.97;5003084;28;20321;-56
2023/04/09 04:47:37;;;;;;;13.53;7.50;;;;;;;2.41;100.00;99270.97;4992969;28;20247;-57
2023/04/09 04:50:05;;;;;;;12.07;7.33;;;;;;;2.34;100.00;99267.03;5000161;28;20768;-57
2023/04/09 04:52:40;;;;;;;11.93;7.33;;;;;;;2.41;100.00;99275.28;5011197;28;20311;-57
2023/04/09 04:55:09;;;;;;;11.17;6.87;;;;;;;2.36;100.00;99272.94;5000417;28;20243;-55
2023/04/09 04:57:36;;;;;;;10.13;7.10;;;;;;;2.35;100.00;99272.13;5002047;28;20230;-57
2023/04/09 05:00:05;;;;;;;10.40;7.37;;;;;;;2.33;100.00;99273.97;5001995;28;20231;-58
2023/04/09 05:02:32;;;;;;;11.30;7.77;;;;;;;2.36;100.00;99272.94;5002926;28;20240;-57
2023/04/09 05:05:17;;;;;;;11.67;6.93;;;;;;;2.47;100.00;99278.34;5001226;28;20238;-58
2023/04/09 05:07:49;;;;;;;11.70;6.47;;;;;;;2.56;100.00;99283.94;5003092;28;20230;-58
2023/04/09 05:10:16;;;;;;;10.07;6.10;;;;;;;2.55;100.00;99280.53;5000670;28;20720;-59
2023/04/09 05:12:44;;;;;;;10.23;6.07;;;;;;;2.59;100.00;99286.34;5004700;28;20604;-58
2023/04/09 05:15:18;;;;;;;10.83;6.50;;;;;;;2.55;100.00;99283.13;5006620;28;20970;-58
2023/04/09 05:17:45;;;;;;;9.83;6.77;;;;;;;2.50;100.00;99285.94;5003974;28;20700;-58
2023/04/09 05:20:14;;;;;;;10.43;6.77;;;;;;;2.64;100.00;99292.94;5000155;28;20229;-58
2023/04/09 05:23:03;;;;;;;11.27;6.87;;;;;;;2.61;100.00;99290.50;4994519;28;20699;-56
2023/04/09 05:25:36;;;;;;;9.50;6.57;;;;;;;2.70;100.00;99296.91;5003143;28;20297;-57
2023/04/09 05:28:03;;;;;;;10.93;7.33;;;;;;;2.76;100.00;99300.88;5001661;28;20221;-58
2023/04/09 05:30:33;;;;;;;10.50;6.53;;;;;;;2.77;100.00;99294.81;5001347;28;20229;-58
2023/04/09 05:33:03;;;;;;;11.40;7.27;;;;;;;2.84;100.00;99303.03;5015131;28;20719;-58
2023/04/09 05:35:30;;;;;;;13.83;7.37;;;;;;;2.80;100.00;99303.22;5017698;28;20636;-58
2023/04/09 05:37:58;;;;;;;9.23;6.30;;;;;;;2.85;100.00;99297.78;5003557;28;20235;-58
2023/04/09 05:40:24;;;;;;;13.03;8.07;;;;;;;2.84;100.00;99297.88;4996436;28;20752;-58
2023/04/09 05:42:52;;;;;;;11.67;7.00;;;;;;;2.91;100.00;99304.38;4996603;28;20230;-58
2023/04/09 05:45:34;;;;;;;12.27;7.80;;;;;;;2.91;100.00;99291.47;5000446;28;20332;-57
2023/04/09 05:48:00;;;;;;;11.10;6.93;;;;;;;3.02;100.00;99296.03;5000861;28;20677;-59
2023/04/09 05:50:27;;;;;;;11.13;6.50;;;;;;;3.08;100.00;99299.09;4994692;28;20314;-58
2023/04/09 05:52:55;;;;;;;11.30;6.90;;;;;;;3.08;100.00;99296.53;5003652;28;20233;-57
2023/04/09 05:55:28;;;;;;;11.63;7.10;;;;;;;3.05;100.00;99295.84;5002049;28;20229;-58
2023/04/09 05:57:58;;;;;;;11.73;7.60;;;;;;;3.04;100.00;99295.03;5006545;28;20228;-54
2023/04/09 06:00:25;;;;;;;11.27;7.70;;;;;;;3.19;100.00;99292.47;4998686;28;20228;-57
2023/04/09 06:02:53;;;;;;;10.20;6.43;;;;;;;3.21;100.00;99291.50;5003843;28;20231;-55
2023/04/09 06:05:20;;;;;;;12.20;7.23;;;;;;;3.19;100.00;99293.31;4998386;28;20266;-58
2023/04/09 06:07:48;;;;;;;11.10;6.97;;;;;;;3.22;100.00;99292.31;5001968;28;20224;-57
2023/04/09 06:10:14;;;;;;;10.27;6.43;;;;;;;3.29;100.00;99296.19;4998304;28;20302;-58
2023/04/09 06:12:41;;;;;;;11.77;7.20;;;;;;;3.37;100.00;99298.38;5002376;28;20575;-58
2023/04/09 06:15:09;;;;;;;12.00;7.47;;;;;;;3.44;100.00;99296.25;4999166;28;20688;-57
2023/04/09 06:17:36;;;;;;;12.93;7.77;;;;;;;3.45;100.00;99295.31;5001484;28;20232;-57
2023/04/09 06:20:05;;;;;;;11.73;7.35;;;;;;;3.49;100.00;99305.41;4999389;28;20443;-58
2023/04/09 06:22:31;;;;;;;12.03;7.87;;;;;;;3.55;100.00;99299.03;5001396;28;20256;-56
2023/04/09 06:24:58;;;;;;;11.33;7.50;;;;;;;3.58;100.00;99300.63;5002312;28;20232;-57
2023/04/09 06:27:25;;;;;;;10.83;7.27;;;;;;;3.68;100.00;99307.72;5001144;28;20217;-57
2023/04/09 06:29:52;;;;;;;10.50;7.33;;;;;;;3.74;100.00;99305.72;5001302;28;20232;-58
2023/04/09 06:32:18;;;;;;;10.33;6.70;;;;;;;3.77;100.00;99302.94;4999826;28;20232;-58
2023/04/09 06:34:45;;;;;;;10.93;6.90;;;;;;;3.80;100.00;99303.59;5001312;28;20680;-56
2023/04/09 06:37:13;;;;;;;10.30;6.93;;;;;;;3.86;100.00;99304.97;5001522;28;20641;-58
2023/04/09 06:39:40;;;;;;;11.13;6.80;;;;;;;3.95;100.00;99301.84;5004578;28;20255;-58
2023/04/09 06:42:06;;;;;;;10.53;6.83;;;;;;;3.98;100.00;99304.25;4999350;28;20240;-58
2023/04/09 06:44:39;;;;;;;9.50;6.63;;;;;;;4.05;100.00;99316.81;5008601;28;20236;-58
2023/04/09 06:47:07;;;;;;;10.53;6.90;;;;;;;4.10;100.00;99313.00;4995905;28;20262;-58
2023/04/09 06:49:34;;;;;;;10.33;6.50;;;;;;;4.20;100.00;99315.03;5007283;28;20239;-58
2023/04/09 06:52:01;;;;;;;9.97;7.00;;;;;;;4.29;100.00;99312.72;5005109;28;20316;-57
2023/04/09 06:54:29;;;;;;;9.97;7.00;;;;;;;4.42;100.00;99314.56;5005794;28;20225;-58
2023/04/09 06:56:55;;;;;;;11.67;6.93;;;;;;;4.54;100.00;99316.38;5007968;28;20240;-57
2023/04/09 06:59:22;;;;;;;11.23;7.73;;;;;;;4.68;100.00;99315.53;5003008;28;20233;-58
2023/04/09 07:01:49;;;;;;;12.87;7.30;;;;;;;4.79;100.00;99319.19;5005411;28;20232;-58
2023/04/09 07:04:15;;;;;;;9.93;6.93;;;;;;;4.93;99.58;99324.31;5002846;28;20236;-59
2023/04/09 07:06:42;;;;;;;11.83;7.77;;;;;;;5.11;99.47;99326.66;5006973;28;20228;-59
2023/04/09 07:09:09;;;;;;;10.73;7.23;;;;;;;5.33;98.68;99336.44;5003479;28;20239;-58
2023/04/09 07:11:36;;;;;;;11.93;7.57;;;;;;;5.51;98.12;99329.25;5005163;28;20240;-56
2023/04/09 07:14:03;;;;;;;9.73;7.03;;;;;;;5.69;97.08;99326.38;5003291;28;20251;-57
2023/04/09 07:16:30;;;;;;;12.80;7.10;;;;;;;5.88;94.02;99326.78;5006154;28;20244;-57
2023/04/09 07:18:56;;;;;;;9.43;6.97;;;;;;;6.04;94.44;99330.97;5006438;28;20228;-58
2023/04/09 07:21:23;;;;;;;10.33;7.17;;;;;;;6.20;93.97;99328.19;5003136;28;20237;-56
2023/04/09 07:23:50;;;;;;;10.43;7.20;;;;;;;6.43;93.82;99333.50;5006497;28;20235;-57
2023/04/09 07:26:16;;;;;;;11.87;7.27;;;;;;;6.50;93.07;99333.00;5001537;28;20587;-58
2023/04/09 07:28:44;;;;;;;12.90;10.73;;;;;;;6.62;92.59;99336.47;5005848;28;20221;-58
2023/04/09 07:31:11;;;;;;;15.47;10.43;;;;;;;6.76;92.06;99337.28;5003905;28;20605;-57
2023/04/09 07:33:38;;;;;;;12.83;7.67;;;;;;;6.88;90.97;99348.56;5006535;28;20236;-58
2023/04/09 07:36:05;;;;;;;12.20;7.73;;;;;;;7.00;90.90;99346.84;5005184;28;20228;-58
2023/04/09 07:38:32;;;;;;;13.87;8.00;;;;;;;7.08;91.28;99349.72;5021539;28;20239;-56
2023/04/09 07:40:58;;;;;;;12.73;7.93;;;;;;;7.16;89.09;99344.81;5007091;28;20233;-57
2023/04/09 07:43:25;;;;;;;9.83;7.00;;;;;;;7.31;89.15;99355.84;5002698;28;20221;-58
2023/04/09 07:45:53;;;;;;;12.33;8.07;;;;;;;7.38;88.51;99356.25;5006070;28;20230;-57
2023/04/09 07:48:20;;;;;;;11.57;7.80;;;;;;;7.47;89.16;99346.94;5002407;28;20256;-58
2023/04/09 07:50:47;;;;;;;10.73;7.63;;;;;;;7.53;87.29;99355.09;5006766;28;20268;-57
2023/04/09 07:53:13;;;;;;;11.00;7.73;;;;;;;7.57;86.94;99360.06;5002487;28;20247;-58
2023/04/09 07:55:40;;;;;;;10.07;7.30;;;;;;;7.71;85.38;99361.66;5004463;28;20604;-57
2023/04/09 07:58:07;;;;;;;11.07;7.93;;;;;;;7.86;85.65;99357.91;5002861;28;20256;-58
2023/04/09 08:00:33;;;;;;;12.73;8.20;;;;;;;8.05;84.27;99356.50;5003629;28;20253;-57
2023/04/09 08:03:02;;;;;;;10.93;7.97;;;;;;;8.24;84.86;99351.53;5006221;28;20240;-57
2023/04/09 08:05:29;;;;;;;12.27;8.80;;;;;;;8.31;84.38;99359.72;4996106;28;20236;-57
2023/04/09 08:07:56;;;;;;;10.60;8.20;;;;;;;8.54;83.98;99346.72;5004853;28;20698;-58
2023/04/09 08:10:22;;;;;;;12.53;7.40;;;;;;;8.68;79.36;99349.06;5003027;28;20239;-58
2023/04/09 08:12:50;;;;;;;11.17;7.67;;;;;;;8.85;79.39;99350.34;5006499;28;20229;-58
2023/04/09 08:15:16;;;;;;;11.63;7.70;;;;;;;8.99;76.93;99358.84;4998884;28;20231;-56
2023/04/09 08:17:43;;;;;;;9.70;7.13;;;;;;;9.07;75.93;99359.03;4999865;28;20237;-58
2023/04/09 08:20:12;;;;;;;12.70;8.10;;;;;;;8.96;78.14;99359.91;5004425;28;20235;-58
2023/04/09 08:22:39;;;;;;;10.90;7.63;;;;;;;8.90;75.95;99357.78;4995427;28;20674;-58
2023/04/09 08:25:09;;;;;;;10.97;8.17;;;;;;;8.94;76.01;99361.78;5004181;28;20232;-57
2023/04/09 08:27:35;;;;;;;10.40;7.87;;;;;;;9.10;74.71;99365.78;5006302;28;20588;-58
2023/04/09 08:30:02;;;;;;;10.53;7.23;;;;;;;9.21;75.66;99365.75;5002206;28;20227;-57
2023/04/09 08:32:29;;;;;;;10.73;7.63;;;;;;;9.21;75.33;99365.75;5003982;28;20291;-59
2023/04/09 08:34:56;;;;;;;11.47;7.60;;;;;;;9.39;74.49;99367.81;5006210;28;20259;-59
2023/04/09 08:37:24;;;;;;;10.40;7.60;;;;;;;9.47;73.77;99367.19;5002216;28;20220;-58
2023/04/09 08:39:50;;;;;;;9.77;7.23;;;;;;;9.49;73.95;99366.13;5006710;28;20232;-58
2023/04/09 08:42:19;;;;;;;8.23;6.83;;;;;;;9.55;73.14;99360.38;5002999;28;20242;-58
2023/04/09 08:44:46;;;;;;;8.50;5.77;;;;;;;9.73;65.33;99370.25;5004622;28;20225;-57
2023/04/09 08:47:13;;;;;;;8.07;5.57;;;;;;;9.94;62.85;99369.41;5001966;28;20251;-58
2023/04/09 08:49:40;;;;;;;10.00;6.93;;;;;;;10.12;68.85;99369.66;5006109;28;20590;-59
2023/04/09 08:52:07;;;;;;;9.03;6.03;;;;;;;10.29;63.01;99365.63;5003983;28;20246;-57
2023/04/09 08:54:36;;;;;;;7.63;5.17;;;;;;;10.45;57.13;99368.63;5005644;28;20231;-59
2023/04/09 08:57:05;;;;;;;6.63;5.13;;;;;;;10.73;53.67;99368.00;5003826;28;20241;-58
2023/04/09 08:59:35;;;;;;;7.03;5.13;;;;;;;11.11;50.56;99371.66;5006033;28;20228;-56
2023/04/09 09:02:08;;;;;;;6.93;4.97;;;;;;;11.33;48.92;99365.34;5003602;28;20289;-58
2023/04/09 09:04:45;;;;;;;5.97;4.50;;;;;;;11.59;49.59;99363.94;5003994;28;20224;-58
2023/04/09 09:07:12;;;;;;;5.83;4.47;;;;;;;11.93;47.53;99368.72;5001646;28;20238;-56
2023/04/09 09:09:52;;;;;;;5.50;4.07;;;;;;;12.02;46.12;99370.50;5005433;28;20312;-59
2023/04/09 09:12:32;;;;;;;6.30;4.20;;;;;;;12.35;46.00;99370.94;5002617;28;20247;-59
2023/04/09 09:14:59;;;;;;;5.53;4.00;;;;;;;12.59;45.41;99361.75;5004462;28;20222;-59
2023/04/09 09:17:26;;;;;;;7.77;5.87;;;;;;;12.77;45.97;99364.38;5002744;28;20230;-58
2023/04/09 09:19:52;;;;;;;5.20;4.60;;;;;;;12.72;45.04;99369.25;5004906;28;20264;-58
2023/04/09 09:22:19;;;;;;;5.20;3.40;;;;;;;13.01;43.35;99365.63;5002464;28;20603;-59
2023/04/09 09:24:47;;;;;;;4.53;3.60;;;;;;;13.11;45.92;99374.25;5005098;28;20232;-58
2023/04/09 09:27:31;;;;;;;4.60;3.60;;;;;;;13.54;44.87;99371.06;5002028;28;20233;-58
2023/04/09 09:29:57;;;;;;;8.67;6.43;;;;;;;13.93;45.33;99375.91;5002472;28;20419;-59
2023/04/09 09:32:24;;;;;;;4.33;3.70;;;;;;;13.98;41.92;99378.09;5000337;28;20229;-57
2023/04/09 09:34:59;;;;;;;4.70;3.33;;;;;;;13.81;39.92;99372.75;5003610;28;20324;-59
2023/04/09 09:37:26;;;;;;;5.67;4.23;;;;;;;12.46;42.13;99377.81;4999144;28;20303;-57
2023/04/09 09:39:53;;;;;;;3.87;3.37;;;;;;;12.54;43.24;99375.28;5003905;28;20251;-59
2023/04/09 09:42:22;;;;;;;3.23;2.60;;;;;;;13.09;41.72;99373.56;4990935;28;20236;-59
2023/04/09 09:44:50;;;;;;;3.57;2.80;;;;;;;13.46;43.14;99376.25;5004570;28;20232;-58
2023/04/09 09:47:18;;;;;;;2.67;2.30;;;;;;;13.56;40.76;99372.53;4999612;28;20322;-58
2023/04/09 09:49:45;;;;;;;3.60;2.77;;;;;;;13.52;40.78;99365.97;5003996;28;20264;-57
2023/04/09 09:52:12;;;;;;;4.33;2.30;;;;;;;13.79;43.44;99358.94;5001629;28;20233;-58
2023/04/09 09:54:41;;;;;;;3.10;2.63;;;;;;;14.04;42.71;99361.72;5004727;28;20700;-59
2023/04/09 09:57:09;;;;;;;3.17;2.70;;;;;;;14.24;44.42;99354.44;5002705;28;20365;-59
2023/04/09 09:59:41;;;;;;;3.33;2.90;;;;;;;13.80;42.63;99357.13;5003750;28;20236;-59
2023/04/09 10:02:18;;;;;;;4.07;3.57;;;;;;;13.68;43.73;99352.16;5001968;28;20236;-59
2023/04/09 10:04:45;;;;;;;6.57;4.03;;;;;;;13.77;45.25;99345.16;5003372;28;20234;-57
2023/04/09 10:07:14;;;;;;;4.17;3.43;;;;;;;14.12;42.35;99350.44;5001907;28;20759;-58
2023/04/09 10:09:45;;;;;;;4.73;3.73;;;;;;;13.93;42.13;99351.50;5004918;28;20566;-59
2023/04/09 10:12:12;;;;;;;5.80;4.60;;;;;;;13.91;42.93;99359.50;5002117;28;20237;-59
2023/04/09 10:14:42;;;;;;;5.17;4.40;;;;;;;14.25;44.67;99337.72;5004778;28;20233;-59
2023/04/09 10:17:09;;;;;;;7.47;5.10;;;;;;;13.42;42.32;99344.22;5002035;28;20236;-58
2023/04/09 10:19:42;;;;;;;6.77;5.47;;;;;;;13.62;40.75;99355.41;5003265;28;20224;-58
2023/04/09 10:22:11;;;;;;;5.43;4.03;;;;;;;13.64;42.18;99349.97;5002317;28;20224;-58
2023/04/09 10:24:38;;;;;;;5.60;4.30;;;;;;;13.61;42.66;99366.03;5004015;28;20229;-56
2023/04/09 10:27:12;;;;;;;5.87;4.90;;;;;;;13.57;42.92;99366.31;5002563;28;20228;-58
2023/04/09 10:29:45;;;;;;;6.00;4.70;;;;;;;13.85;42.66;99358.34;5003966;28;20231;-57
2023/04/09 10:32:12;;;;;;;6.03;4.77;;;;;;;13.40;43.01;99352.22;5001643;28;20240;-59
2023/04/09 10:34:40;;;;;;;6.50;5.37;;;;;;;13.64;42.77;99356.06;5004667;28;20315;-58
2023/04/09 10:37:09;;;;;;;6.10;4.33;;;;;;;14.14;43.07;99366.88;5002575;28;20232;-59
2023/04/09 10:39:40;;;;;;;6.20;4.90;;;;;;;14.19;43.02;99361.16;5003740;28;20356;-59
2023/04/09 10:42:11;;;;;;;6.77;4.67;;;;;;;14.45;42.79;99348.78;5002033;28;20315;-57
2023/04/09 10:44:40;;;;;;;6.43;5.37;;;;;;;13.91;42.65;99356.88;5003483;28;20236;-59
2023/04/09 10:47:09;;;;;;;6.37;5.20;;;;;;;13.29;41.50;99353.28;5002062;28;20235;-58
2023/04/09 10:49:37;;;;;;;6.27;5.30;;;;;;;13.16;42.91;99352.00;5003860;28;20299;-58
2023/04/09 10:52:06;;;;;;;6.37;5.17;;;;;;;13.13;45.11;99347.91;5015882;28;20779;-58
2023/04/09 10:54:38;;;;;;;6.73;5.20;;;;;;;13.20;45.54;99340.25;5003417;28;20241;-58
2023/04/09 10:57:19;;;;;;;5.97;4.67;;;;;;;12.85;44.19;99345.34;5000419;28;20597;-58
2023/04/09 10:59:48;;;;;;;6.27;4.53;;;;;;;13.10;45.58;99349.00;5002843;28;20316;-58
2023/04/09 11:03:10;;;;;;;6.10;4.43;;;;;;;13.27;44.76;99344.72;5004367;28;20723;-58
2023/04/09 11:05:38;;;;;;;6.23;4.53;;;;;;;13.45;41.81;99340.50;5001891;28;20595;-59
2023/04/09 11:08:09;;;;;;;6.03;4.40;;;;;;;13.55;42.19;99343.88;5001877;28;20323;-59
2023/04/09 11:10:37;;;;;;;5.97;4.03;;;;;;;14.15;40.77;99344.88;5003997;28;20225;-58
2023/04/09 11:13:04;;;;;;;7.43;5.43;;;;;;;14.39;42.64;99349.41;5002112;28;20261;-58
2023/04/09 11:15:32;;;;;;;6.70;5.33;;;;;;;14.45;40.38;99340.91;5003257;28;20854;-58
2023/04/09 11:18:01;;;;;;;6.00;4.90;;;;;;;14.59;38.61;99343.91;5004327;28;20239;-59
2023/04/09 11:20:30;;;;;;;6.63;4.73;;;;;;;14.58;39.46;99343.09;5001296;28;22052;-59
2023/04/09 11:22:59;;;;;;;6.77;4.73;;;;;;;14.55;41.74;99346.06;5004067;28;20232;-58
2023/04/09 11:25:27;;;;;;;5.33;4.37;;;;;;;14.49;39.58;99346.69;5001391;28;20240;-60
2023/04/09 11:27:54;;;;;;;6.87;4.77;;;;;;;14.39;39.77;99340.72;5004081;28;20569;-58
2023/04/09 11:30:21;;;;;;;6.10;4.53;;;;;;;14.52;40.32;99337.66;5002461;28;20268;-55
2023/04/09 11:32:48;;;;;;;6.40;4.97;;;;;;;14.45;39.99;99325.16;5006204;28;20326;-58
2023/04/09 11:35:18;;;;;;;5.17;4.20;;;;;;;14.88;39.56;99324.31;5003641;28;20237;-56
2023/04/09 11:37:45;;;;;;;6.27;4.60;;;;;;;14.76;40.86;99323.81;5005395;28;20673;-59
2023/04/09 11:40:16;;;;;;;5.00;4.03;;;;;;;14.94;39.61;99326.31;5004430;28;20229;-56
2023/04/09 11:42:44;;;;;;;4.53;3.87;;;;;;;15.09;40.26;99341.44;5006190;28;20331;-58